Coconut Creek, Florida
Current Conditions -  °F | °C
As of 11:53 PM on Sunday 21 Dec 2014 (Local Time) from KFXE Reporting Station
Scattered Clouds Scattered Clouds  
Wind Chill: 73°   Ceiling: Unl
Heat Index: 73°   Visibility: 10mi
Dew Point: 64°   Wind: 3mph
Humidity: 73%   Direction: 160°SSE
Pressure: 30.05"   Gusts: NA
Location:  26.26°N, 80.19°W
Report Text: KFXE 220453Z 16003KT 10SM SCT110 23/18 A3005 RMK AO2 SLP177 T02280178 402720167 $
Loading
Personal Weather Stations






























Interactive Weather Map New forecast layout! Learn more

10-Day Weather Forecast

Advertisements
Track Severe Weather on mobile